Time;durP1;ratioP1;P1;durP2;ratioP2;P2;SDS_P1;SDS_P2;PMS_P1;PMS_P2;Temp;Humidity;BMP_temperature;BMP_pressure;BME280_temperature;BME280_humidity;BME280_pressure;Samples;Min_cycle;Max_cycle;Signal;HPM_P1;HPM_P2
2021/12/12 00:01:30;;;;;;;42.83;3.97;;;;;;;17.49;63.80;101140.25;5089966;28;20111;-70
2021/12/12 00:04:10;;;;;;;26.13;3.45;;;;;;;17.50;63.86;101142.03;5089634;28;20036;-69
2021/12/12 00:06:41;;;;;;;37.45;4.63;;;;;;;17.52;63.76;101145.56;5089401;28;20040;-69
2021/12/12 00:09:13;;;;;;;32.22;4.50;;;;;;;17.56;63.70;101137.53;5089790;28;20130;-70
2021/12/12 00:11:42;;;;;;;27.63;3.78;;;;;;;17.59;63.60;101129.53;5104938;28;20044;-70
2021/12/12 00:14:14;;;;;;;50.15;5.10;;;;;;;17.61;63.51;101135.75;5090205;28;20046;-70
2021/12/12 00:16:43;;;;;;;21.75;2.92;;;;;;;17.58;63.49;101135.75;5073989;28;20119;-72
2021/12/12 00:19:13;;;;;;;37.33;4.13;;;;;;;17.64;63.36;101122.41;5090113;28;20488;-70
2021/12/12 00:21:46;;;;;;;30.40;5.03;;;;;;;17.66;63.16;101120.59;5090287;28;20043;-70
2021/12/12 00:24:16;;;;;;;26.77;3.50;;;;;;;17.62;63.08;101117.06;5090360;28;20044;-70
2021/12/12 00:26:46;;;;;;;26.67;3.28;;;;;;;17.66;62.92;101117.91;5090184;28;20097;-70
2021/12/12 00:29:16;;;;;;;19.30;2.83;;;;;;;17.65;62.73;101119.72;5090066;28;20040;-70
2021/12/12 00:31:45;;;;;;;22.63;2.50;;;;;;;17.61;62.11;101109.06;5089628;28;20054;-71
2021/12/12 00:34:15;;;;;;;27.73;4.47;;;;;;;17.59;61.88;101106.34;5088678;28;20044;-70
2021/12/12 00:36:43;;;;;;;25.40;3.38;;;;;;;17.52;60.78;101115.34;5094260;28;20123;-70
2021/12/12 00:39:15;;;;;;;27.38;4.18;;;;;;;17.53;60.50;101109.97;5093502;28;20499;-70
2021/12/12 00:41:46;;;;;;;24.38;3.17;;;;;;;17.50;59.84;101115.34;5092397;28;20488;-70
2021/12/12 00:44:16;;;;;;;24.60;3.03;;;;;;;17.47;59.43;101125.13;5092968;28;20040;-70
2021/12/12 00:46:45;;;;;;;18.67;3.65;;;;;;;17.49;58.60;101107.34;5093615;28;20044;-70
2021/12/12 00:49:16;;;;;;;20.35;3.22;;;;;;;17.52;57.26;101112.66;5093133;28;20050;-70
2021/12/12 00:51:46;;;;;;;20.35;2.55;;;;;;;17.54;56.70;101111.75;5093723;28;20139;-70
2021/12/12 00:54:16;;;;;;;16.92;3.65;;;;;;;17.51;57.07;101113.56;5093027;28;20036;-71
2021/12/12 00:56:45;;;;;;;21.38;3.55;;;;;;;17.46;56.49;101120.69;5094166;28;20044;-70
2021/12/12 00:59:14;;;;;;;30.45;4.35;;;;;;;17.45;56.44;101113.59;5093499;28;20115;-70
2021/12/12 01:01:46;;;;;;;17.08;2.90;;;;;;;17.46;56.49;101112.69;5093178;28;20055;-70
2021/12/12 01:04:20;;;;;;;23.63;3.20;;;;;;;17.47;56.21;101117.13;5093546;28;20043;-70
2021/12/12 01:06:50;;;;;;;17.35;2.60;;;;;;;17.43;56.02;101118.06;5092047;28;20510;-70
2021/12/12 01:09:22;;;;;;;12.93;3.08;;;;;;;17.44;56.06;101119.84;5092461;28;20388;-69
2021/12/12 01:11:53;;;;;;;25.85;3.53;;;;;;;17.42;56.06;101117.16;5093180;28;20131;-70
2021/12/12 01:14:26;;;;;;;23.83;4.30;;;;;;;17.38;56.14;101120.78;5093464;28;20040;-69
2021/12/12 01:16:58;;;;;;;21.80;2.78;;;;;;;17.32;56.33;101118.16;5081973;28;20044;-70
2021/12/12 01:19:31;;;;;;;30.10;3.35;;;;;;;17.29;56.49;101115.47;5073878;28;20089;-69
2021/12/12 01:22:06;;;;;;;16.75;3.40;;;;;;;17.27;56.69;101116.38;5093570;28;20059;-69
2021/12/12 01:24:34;;;;;;;;;;;;;;;17.23;56.88;101112.84;5093489;28;20122;-70
2021/12/12 01:27:04;;;;;;;24.45;4.97;;;;;;;17.20;57.14;101099.50;5091414;28;19920;-69
2021/12/12 01:29:32;;;;;;;17.48;2.50;;;;;;;17.17;57.19;101094.22;5092215;28;20424;-69
2021/12/12 01:32:03;;;;;;;24.88;3.20;;;;;;;17.20;57.27;101082.66;5092488;28;20044;-69
2021/12/12 01:34:34;;;;;;;17.70;2.13;;;;;;;17.19;57.48;101079.09;5092745;28;20077;-69
2021/12/12 01:37:11;;;;;;;22.00;2.33;;;;;;;17.20;57.67;101078.16;5092952;28;20115;-69
2021/12/12 01:39:42;;;;;;;15.73;1.98;;;;;;;17.20;57.75;101077.31;5092141;28;20091;-70
2021/12/12 01:42:16;;;;;;;15.70;2.20;;;;;;;17.24;57.86;101065.72;5092694;28;20040;-70
2021/12/12 01:44:48;;;;;;;18.60;1.77;;;;;;;17.29;57.85;101066.56;5091925;28;20121;-70
2021/12/12 01:47:20;;;;;;;17.77;2.47;;;;;;;17.25;57.91;101071.03;5092288;28;20064;-69
2021/12/12 01:49:52;;;;;;;25.00;4.22;;;;;;;17.28;58.05;101064.78;5092461;28;20043;-70
2021/12/12 01:52:25;;;;;;;14.55;1.80;;;;;;;17.27;58.04;101069.22;5091446;28;20169;-69
2021/12/12 01:55:00;;;;;;;13.25;1.40;;;;;;;17.24;58.17;101066.59;5092332;28;20450;-69
2021/12/12 01:57:32;;;;;;;15.73;1.77;;;;;;;17.25;58.10;101064.81;5090243;28;20381;-70
2021/12/12 02:00:05;;;;;;;14.15;2.30;;;;;;;17.25;58.19;101067.50;5092342;28;20109;-69
2021/12/12 02:02:39;;;;;;;8.35;1.50;;;;;;;17.23;58.28;101064.81;5092362;28;20127;-69
2021/12/12 02:05:13;;;;;;;21.00;3.00;;;;;;;17.30;58.31;101066.56;5091640;28;20105;-69
2021/12/12 02:07:44;;;;;;;6.70;1.20;;;;;;;17.27;58.42;101057.66;5091871;28;20394;-70
2021/12/12 02:10:15;;;;;;;20.10;3.10;;;;;;;17.29;58.39;101056.78;5092370;28;20334;-70
2021/12/12 02:12:43;;;;;;;18.67;3.20;;;;;;;17.33;58.38;101055.84;5091544;28;20774;-70
2021/12/12 02:15:14;;;;;;;18.15;2.85;;;;;;;17.34;58.48;101054.94;5092553;28;20064;-70
2021/12/12 02:17:45;;;;;;;18.30;2.50;;;;;;;17.30;58.72;101057.66;5091824;28;20062;-70
2021/12/12 02:20:23;;;;;;;12.68;3.05;;;;;;;17.29;58.91;101050.53;5091081;28;20538;-69
2021/12/12 02:23:06;;;;;;;16.25;3.95;;;;;;;17.30;59.05;101052.31;5091987;28;20059;-70
2021/12/12 02:36:44;;;;;;;15.07;2.10;;;;;;;17.35;58.59;101040.72;5091833;28;20040;-70
2021/12/12 02:39:16;;;;;;;12.27;2.33;;;;;;;17.38;58.38;101030.03;5091990;28;20040;-70
2021/12/12 02:41:49;;;;;;;21.30;2.83;;;;;;;17.41;58.32;101037.09;5089723;28;20043;-70
2021/12/12 02:44:22;;;;;;;8.63;1.65;;;;;;;17.41;58.46;101027.31;5091664;28;20036;-71
2021/12/12 02:46:53;;;;;;;5.72;1.48;;;;;;;17.44;58.51;101039.75;5090765;28;20036;-70
2021/12/12 02:49:37;;;;;;;12.93;1.67;;;;;;;17.44;58.62;101043.31;5091609;28;20392;-71
2021/12/12 02:52:07;;;;;;;10.43;1.25;;;;;;;17.45;58.81;101038.88;5087879;28;20048;-70
2021/12/12 02:54:37;;;;;;;12.60;1.92;;;;;;;17.44;59.11;101032.66;5091125;28;20044;-70
2021/12/12 02:57:06;;;;;;;12.63;2.53;;;;;;;17.44;59.38;101039.75;5091105;28;20449;-70
2021/12/12 02:59:35;;;;;;;13.18;2.08;;;;;;;17.46;59.69;101033.50;5090893;28;20131;-69
2021/12/12 03:02:07;;;;;;;13.32;2.17;;;;;;;17.56;59.62;101026.31;5090873;28;20107;-71
2021/12/12 03:04:35;;;;;;;19.30;1.92;;;;;;;17.54;59.92;101038.78;5091544;28;20184;-70
2021/12/12 03:07:07;;;;;;;11.50;1.83;;;;;;;17.56;59.98;101038.78;5091477;28;20036;-70
2021/12/12 03:09:38;;;;;;;10.95;2.05;;;;;;;17.54;60.01;101041.44;5088767;28;20135;-69
2021/12/12 03:12:11;;;;;;;10.77;1.65;;;;;;;17.49;60.13;101044.16;5106806;28;20481;-70
2021/12/12 03:14:40;;;;;;;15.00;1.73;;;;;;;17.45;60.41;101039.75;5091383;28;20043;-69
2021/12/12 03:17:12;;;;;;;8.30;1.50;;;;;;;17.46;60.50;101043.28;5090885;28;20408;-70
2021/12/12 03:19:40;;;;;;;9.07;1.60;;;;;;;17.44;60.62;101039.75;5091066;28;20043;-70
2021/12/12 03:22:09;;;;;;;13.85;2.20;;;;;;;17.39;60.93;101037.09;5090985;28;20040;-71
2021/12/12 03:24:39;;;;;;;20.40;2.10;;;;;;;17.40;61.17;101036.22;5091356;28;20141;-69
2021/12/12 03:27:08;;;;;;;9.57;1.02;;;;;;;17.36;61.50;101041.59;5090017;28;20429;-71
2021/12/12 03:29:38;;;;;;;12.25;1.80;;;;;;;17.38;61.83;101039.81;5090148;28;20051;-70
2021/12/12 03:32:09;;;;;;;7.45;1.15;;;;;;;17.39;62.21;101037.09;5090565;28;20043;-71
2021/12/12 03:34:41;;;;;;;9.63;1.35;;;;;;;17.37;62.39;101043.38;5087330;28;20097;-70
2021/12/12 03:37:12;;;;;;;8.70;1.80;;;;;;;17.35;62.56;101042.50;5091077;28;20047;-71
2021/12/12 03:39:45;;;;;;;10.77;2.75;;;;;;;17.36;62.66;101041.59;5090229;28;20400;-70
2021/12/12 03:42:16;;;;;;;11.15;1.88;;;;;;;17.37;62.60;101049.59;5090928;28;20438;-71
2021/12/12 03:44:45;;;;;;;6.72;1.02;;;;;;;17.37;62.52;101033.59;5090073;28;20041;-70
2021/12/12 03:47:17;;;;;;;9.98;1.35;;;;;;;17.38;62.54;101037.16;5090619;28;20040;-70
2021/12/12 03:49:45;;;;;;;9.25;1.60;;;;;;;17.35;62.64;101035.38;5104602;28;20036;-70
2021/12/12 03:52:18;;;;;;;15.20;1.60;;;;;;;17.41;62.71;101048.66;5088767;28;20036;-71
2021/12/12 03:54:50;;;;;;;10.52;1.35;;;;;;;17.35;63.03;101043.38;5090557;28;20040;-70
2021/12/12 03:57:19;;;;;;;17.65;1.80;;;;;;;17.31;62.98;101041.66;5089877;28;20494;-71
2021/12/12 03:59:48;;;;;;;12.98;1.50;;;;;;;17.29;63.08;101054.09;5088882;28;20066;-71
2021/12/12 04:02:16;;;;;;;8.52;1.65;;;;;;;17.26;63.17;101048.81;5090548;28;20131;-70
2021/12/12 04:04:48;;;;;;;9.80;1.58;;;;;;;17.27;62.98;101041.66;5089022;28;20094;-70
2021/12/12 04:07:19;;;;;;;9.93;1.35;;;;;;;17.25;62.89;101056.81;5089194;28;20120;-71
2021/12/12 04:09:50;;;;;;;7.45;1.30;;;;;;;17.25;62.90;101055.03;5093206;28;20032;-70
2021/12/12 04:12:19;;;;;;;15.02;1.65;;;;;;;17.21;62.95;101058.59;5093698;28;20040;-69
2021/12/12 04:14:48;;;;;;;5.72;1.02;;;;;;;17.19;62.82;101065.75;5094603;28;20123;-69
2021/12/12 04:17:19;;;;;;;14.25;1.92;;;;;;;17.23;62.78;101061.25;5094909;28;20036;-71
2021/12/12 04:19:49;;;;;;;14.57;1.85;;;;;;;17.22;62.64;101084.38;5094105;28;20093;-70
2021/12/12 04:22:17;;;;;;;19.90;2.33;;;;;;;17.18;62.32;101085.31;5093881;28;20109;-70
2021/12/12 04:24:50;;;;;;;14.02;2.17;;;;;;;17.18;62.29;101098.66;5093256;28;20097;-70
2021/12/12 04:27:19;;;;;;;10.43;1.00;;;;;;;17.12;62.45;101099.59;5094303;28;20056;-70
2021/12/12 04:29:51;;;;;;;13.55;1.90;;;;;;;17.11;62.41;101099.59;5093681;28;20040;-71
2021/12/12 04:32:21;;;;;;;13.65;2.35;;;;;;;17.11;62.26;101104.94;5093430;28;20047;-70
2021/12/12 04:34:51;;;;;;;13.75;1.42;;;;;;;17.11;62.20;101105.81;5094304;28;20068;-70
2021/12/12 04:37:20;;;;;;;9.15;1.52;;;;;;;17.11;62.24;101099.59;5092236;28;20071;-69
2021/12/12 04:39:53;;;;;;;8.02;1.20;;;;;;;17.15;62.05;101114.66;5093641;28;20048;-71
2021/12/12 04:42:24;;;;;;;14.63;1.60;;;;;;;17.16;62.06;101123.56;5094155;28;20096;-71
2021/12/12 04:44:56;;;;;;;12.38;1.77;;;;;;;17.12;62.27;101115.59;5093087;28;20079;-70
2021/12/12 04:50:20;;;;;;;7.35;0.95;;;;;;;17.07;62.68;101141.38;5046872;28;20569;-71
2021/12/12 04:52:54;;;;;;;13.75;1.67;;;;;;;17.08;62.75;101140.50;5093708;28;20126;-70
2021/12/12 04:55:30;;;;;;;9.23;1.60;;;;;;;17.06;62.89;101131.63;5093638;28;20055;-70
2021/12/12 04:58:03;;;;;;;14.32;2.10;;;;;;;16.94;63.29;101133.44;5093910;28;20051;-70
2021/12/12 05:00:35;;;;;;;22.33;2.22;;;;;;;16.89;63.54;101143.25;5099914;28;20043;-70
2021/12/12 05:03:13;;;;;;;10.88;2.00;;;;;;;16.87;63.80;101137.06;5093655;28;20055;-71
2021/12/12 05:05:45;;;;;;;15.68;2.13;;;;;;;16.96;63.60;101145.00;5093137;28;20036;-71
2021/12/12 05:08:16;;;;;;;12.60;1.80;;;;;;;16.81;63.94;101142.38;5093317;28;20123;-71
2021/12/12 05:10:50;;;;;;;16.83;1.83;;;;;;;16.88;63.84;101139.69;5093346;28;20138;-71
2021/12/12 05:13:24;;;;;;;24.85;2.53;;;;;;;16.81;63.97;101139.72;5093148;28;20044;-70
2021/12/12 05:15:55;;;;;;;14.18;2.30;;;;;;;16.87;64.07;101145.06;5092606;28;20062;-71
2021/12/12 05:18:30;;;;;;;18.08;2.50;;;;;;;16.93;63.78;101150.38;5092861;28;20036;-70
2021/12/12 05:21:02;;;;;;;12.98;2.05;;;;;;;16.94;63.88;101152.13;5091233;28;20043;-70
2021/12/12 05:23:32;;;;;;;16.80;2.05;;;;;;;16.93;63.82;101158.38;5093151;28;20044;-71
2021/12/12 05:26:05;;;;;;;12.77;1.45;;;;;;;16.96;63.64;101164.56;5093129;28;20089;-70
2021/12/12 05:28:36;;;;;;;8.95;1.65;;;;;;;16.97;63.46;101170.78;5092509;28;20124;-70
2021/12/12 05:31:07;;;;;;;16.63;1.85;;;;;;;16.92;63.50;101177.94;5093505;28;20044;-70
2021/12/12 05:33:36;;;;;;;17.80;1.88;;;;;;;16.90;63.52;101185.91;5103477;28;20515;-70
2021/12/12 05:36:07;;;;;;;15.52;3.03;;;;;;;16.88;63.55;101186.81;5087347;28;20064;-70
2021/12/12 05:38:35;;;;;;;17.85;2.53;;;;;;;16.87;63.54;101185.91;5092926;28;20048;-71
2021/12/12 05:41:25;;;;;;;9.82;2.28;;;;;;;16.87;63.50;101196.59;5104736;28;20048;-70
2021/12/12 05:43:56;;;;;;;11.35;1.27;;;;;;;16.88;63.52;101203.69;5080236;28;20055;-70
2021/12/12 05:46:25;;;;;;;7.93;1.42;;;;;;;16.89;63.57;101202.81;5080835;28;20480;-70
2021/12/12 05:48:54;;;;;;;11.32;2.53;;;;;;;16.91;63.64;101208.16;5086776;28;20495;-70
2021/12/12 05:51:23;;;;;;;10.82;2.17;;;;;;;16.89;63.78;101204.59;5086981;28;20047;-70
2021/12/12 05:53:52;;;;;;;17.13;1.67;;;;;;;16.87;63.90;101207.25;5072541;28;20047;-70
2021/12/12 05:56:25;;;;;;;15.55;2.20;;;;;;;16.92;63.89;101199.25;5091745;28;20063;-71
2021/12/12 05:58:53;;;;;;;21.17;2.63;;;;;;;16.94;63.67;101198.34;5090470;28;20040;-71
2021/12/12 06:01:23;;;;;;;11.27;1.77;;;;;;;16.97;63.54;101213.47;5085624;28;20060;-70
2021/12/12 06:03:52;;;;;;;10.40;1.83;;;;;;;16.98;63.50;101208.13;5090804;28;20040;-70
2021/12/12 06:06:22;;;;;;;16.75;2.05;;;;;;;16.99;63.47;101206.34;5091833;28;20068;-70
2021/12/12 06:08:51;;;;;;;10.93;2.20;;;;;;;16.97;63.55;101209.03;5102267;28;20043;-70
2021/12/12 06:11:23;;;;;;;12.15;2.33;;;;;;;16.98;63.44;101209.91;5086562;28;20086;-71
2021/12/12 06:13:53;;;;;;;10.27;1.42;;;;;;;17.03;63.46;101214.31;5072228;28;20036;-71
2021/12/12 06:16:23;;;;;;;13.75;1.85;;;;;;;17.10;63.42;101209.84;5083899;28;20047;-70
2021/12/12 06:18:54;;;;;;;14.02;2.25;;;;;;;17.23;63.01;101219.59;5073594;28;20040;-71
2021/12/12 06:21:22;;;;;;;16.05;2.17;;;;;;;17.41;63.14;101221.28;5087190;28;20411;-70
2021/12/12 06:23:50;;;;;;;14.45;2.05;;;;;;;17.47;62.96;101214.13;5081151;28;20519;-70
2021/12/12 06:26:20;;;;;;;24.80;3.05;;;;;;;17.61;62.92;101213.19;5080942;28;20405;-71
2021/12/12 06:28:50;;;;;;;26.40;3.63;;;;;;;17.74;62.87;101221.13;5077008;28;20048;-70
2021/12/12 06:31:21;;;;;;;18.85;3.00;;;;;;;17.90;62.77;101229.94;5080513;28;20094;-68
2021/12/12 06:33:49;;;;;;;18.67;2.55;;;;;;;18.00;62.58;101228.94;5082161;28;20037;-69
2021/12/12 06:36:17;;;;;;;13.63;2.72;;;;;;;18.22;62.52;101227.91;5088389;28;20032;-68
2021/12/12 06:39:08;;;;;;;20.58;2.95;;;;;;;18.55;62.52;101239.19;5083868;28;20040;-70
2021/12/12 06:41:37;;;;;;;19.67;2.35;;;;;;;18.80;61.62;101229.16;5083030;28;20082;-70
2021/12/12 06:44:06;;;;;;;13.15;2.20;;;;;;;18.97;61.30;101238.75;5078919;28;20093;-71
2021/12/12 06:46:38;;;;;;;17.23;1.98;;;;;;;19.16;61.14;101230.53;5088729;28;20048;-71
2021/12/12 06:49:07;;;;;;;15.73;1.77;;;;;;;19.24;60.38;101242.03;5089884;28;20490;-71
2021/12/12 06:51:40;;;;;;;15.82;1.95;;;;;;;19.47;60.53;101237.31;5089138;28;20047;-71
2021/12/12 06:54:08;;;;;;;23.77;2.47;;;;;;;19.73;59.99;101239.63;5088576;28;20488;-71
2021/12/12 06:56:37;;;;;;;13.50;1.70;;;;;;;19.68;58.59;101239.72;5091550;28;20480;-71
2021/12/12 06:59:06;;;;;;;13.65;2.30;;;;;;;19.64;58.18;101229.91;5091183;28;20046;-71
2021/12/12 07:01:37;;;;;;;27.55;2.42;;;;;;;19.70;58.23;101248.59;5085657;28;20044;-70
2021/12/12 07:04:09;;;;;;;18.45;2.35;;;;;;;19.83;58.47;101243.94;5086535;28;20752;-70
2021/12/12 07:06:38;;;;;;;17.23;2.53;;;;;;;19.92;57.68;101248.28;5083228;28;20048;-70
2021/12/12 07:09:10;;;;;;;25.83;3.05;;;;;;;20.02;57.14;101244.56;5078351;28;20123;-71
2021/12/12 07:11:40;;;;;;;18.73;2.35;;;;;;;20.07;56.57;101240.91;5086352;28;20036;-71
2021/12/12 07:14:11;;;;;;;11.70;1.92;;;;;;;20.18;56.54;101243.41;5070681;28;20119;-71
2021/12/12 07:16:40;;;;;;;12.40;2.17;;;;;;;20.26;56.13;101244.16;5069234;28;20407;-71
2021/12/12 07:19:09;;;;;;;16.88;2.80;;;;;;;20.37;55.82;101244.91;5080684;28;20071;-72
2021/12/12 07:21:37;;;;;;;15.07;2.25;;;;;;;20.46;55.49;101246.56;5078704;28;20064;-71
2021/12/12 07:24:06;;;;;;;20.40;3.00;;;;;;;20.55;54.91;101252.63;5086012;28;20118;-71
2021/12/12 07:26:34;;;;;;;20.60;2.95;;;;;;;20.67;54.38;101257.81;5071661;28;20109;-71
2021/12/12 07:29:05;;;;;;;20.85;4.90;;;;;;;20.68;54.32;101254.19;5086621;28;20044;-72
2021/12/12 07:31:37;;;;;;;17.50;3.05;;;;;;;20.81;54.35;101260.19;5085633;28;20419;-70
2021/12/12 07:34:11;;;;;;;12.80;2.42;;;;;;;20.83;53.26;101254.81;5090438;28;20547;-72
2021/12/12 07:36:43;;;;;;;19.30;3.63;;;;;;;20.91;53.29;101263.63;5078624;28;20483;-71
2021/12/12 07:39:13;;;;;;;25.95;6.63;;;;;;;21.08;53.46;101265.06;5090509;28;20407;-72
2021/12/12 07:41:43;;;;;;;18.88;3.78;;;;;;;21.21;52.63;101259.47;5077034;28;20039;-71
2021/12/12 07:44:14;;;;;;;29.70;6.55;;;;;;;21.23;52.35;101268.38;5088832;28;20064;-72
2021/12/12 07:46:44;;;;;;;21.45;4.30;;;;;;;21.27;52.54;101278.13;5084248;28;20067;-70
2021/12/12 07:49:13;;;;;;;31.17;7.18;;;;;;;21.41;52.17;101268.88;5087232;28;20487;-71
2021/12/12 07:51:43;;;;;;;25.10;5.40;;;;;;;21.62;51.91;101277.41;5084568;28;20450;-71
2021/12/12 07:54:11;;;;;;;18.95;4.35;;;;;;;21.71;51.30;101274.53;5088053;28;20807;-71
2021/12/12 07:56:41;;;;;;;25.75;3.42;;;;;;;21.86;50.93;101271.50;5082158;28;20040;-72
2021/12/12 07:59:12;;;;;;;20.85;4.10;;;;;;;21.75;50.85;101266.38;5082241;28;20043;-70
2021/12/12 08:01:44;;;;;;;23.23;3.97;;;;;;;21.76;50.93;101267.25;5087080;28;20510;-71
2021/12/12 08:04:15;;;;;;;23.27;2.30;;;;;;;21.65;50.56;101261.25;5084039;28;20557;-70
2021/12/12 08:06:44;;;;;;;21.50;5.35;;;;;;;21.69;50.41;101261.13;5076274;28;20047;-70
2021/12/12 08:09:13;;;;;;;23.13;3.50;;;;;;;21.73;50.14;101264.63;5077293;28;20064;-72
2021/12/12 08:11:44;;;;;;;24.20;4.13;;;;;;;21.54;49.79;101263.25;5096929;28;20439;-71
2021/12/12 08:14:19;;;;;;;22.60;3.17;;;;;;;21.32;50.36;101269.09;5067782;28;20063;-71
2021/12/12 08:16:49;;;;;;;21.63;3.58;;;;;;;21.31;50.61;101266.44;5082670;28;20044;-70
2021/12/12 08:19:21;;;;;;;21.85;6.43;;;;;;;21.13;50.51;101273.03;5076993;28;20457;-71
2021/12/12 08:21:50;;;;;;;21.00;6.35;;;;;;;20.82;50.84;101270.03;5075021;28;20045;-70
2021/12/12 08:24:18;;;;;;;27.25;8.98;;;;;;;20.87;51.45;101269.97;5086514;28;20036;-70
2021/12/12 08:26:48;;;;;;;31.40;10.95;;;;;;;21.25;51.56;101267.44;5078370;28;20118;-71
2021/12/12 08:29:16;;;;;;;17.77;4.50;;;;;;;21.45;51.29;101265.25;5097786;28;20060;-70
2021/12/12 08:31:46;;;;;;;14.43;3.20;;;;;;;21.51;50.39;101256.16;5079543;28;20123;-69
2021/12/12 08:34:15;;;;;;;27.83;3.90;;;;;;;21.62;49.88;101255.91;5087347;28;20055;-71
2021/12/12 08:36:48;;;;;;;20.42;2.50;;;;;;;21.67;49.91;101254.00;5084373;28;20131;-70
2021/12/12 08:39:16;;;;;;;18.40;4.13;;;;;;;21.61;49.99;101262.22;5086473;28;20045;-71
2021/12/12 08:41:49;;;;;;;17.10;3.85;;;;;;;21.59;50.25;101258.69;5086354;28;20093;-71
2021/12/12 08:44:18;;;;;;;25.10;4.75;;;;;;;21.81;50.31;101246.53;5077819;28;20036;-72
2021/12/12 08:46:48;;;;;;;20.40;3.10;;;;;;;21.82;50.01;101250.97;5087785;28;20048;-72
2021/12/12 08:49:19;;;;;;;18.77;3.35;;;;;;;21.55;49.63;101255.16;5074367;28;20039;-70
2021/12/12 08:52:07;;;;;;;18.98;6.55;;;;;;;21.43;49.28;101256.31;5084240;28;20127;-71
2021/12/12 08:54:37;;;;;;;29.55;4.85;;;;;;;21.10;49.68;101251.59;5079906;28;20076;-70
2021/12/12 08:57:10;;;;;;;26.42;8.40;;;;;;;21.27;49.95;101260.22;5076249;28;20048;-72
2021/12/12 08:59:45;;;;;;;21.08;6.13;;;;;;;21.58;49.70;101249.75;5082621;28;20055;-69
2021/12/12 09:02:15;;;;;;;28.23;7.57;;;;;;;21.78;49.52;101260.06;5102299;28;20059;-76
2021/12/12 09:04:48;;;;;;;18.45;5.57;;;;;;;21.64;48.69;101259.47;5078685;28;20051;-70
2021/12/12 09:07:23;;;;;;;22.90;3.80;;;;;;;21.37;49.33;101253.78;5085079;28;20044;-71
2021/12/12 09:10:00;;;;;;;14.05;6.38;;;;;;;21.65;49.41;101262.13;5106045;28;20060;-70
2021/12/12 09:12:31;;;;;;;24.10;6.38;;;;;;;21.85;49.44;101249.13;5086343;28;20043;-70
2021/12/12 09:15:05;;;;;;;25.42;6.47;;;;;;;21.83;49.42;101258.13;5089054;28;20071;-70
2021/12/12 09:17:36;;;;;;;25.15;4.45;;;;;;;21.58;49.22;101257.81;5092254;28;20127;-69
2021/12/12 09:20:10;;;;;;;18.77;2.55;;;;;;;21.42;49.43;101259.91;5088292;28;20044;-71
2021/12/12 09:22:44;;;;;;;30.30;4.80;;;;;;;21.34;49.64;101248.44;5089880;28;20052;-70
2021/12/12 09:25:23;;;;;;;22.13;4.65;;;;;;;21.43;50.47;101252.75;5087946;28;20036;-71
2021/12/12 09:27:56;;;;;;;15.07;3.53;;;;;;;21.67;50.01;101237.88;5105785;28;20115;-69
2021/12/12 09:30:26;;;;;;;23.33;5.28;;;;;;;21.51;50.02;101242.72;5085563;28;20037;-71
2021/12/12 09:33:00;;;;;;;25.58;4.70;;;;;;;21.25;50.61;101251.34;5092376;28;20052;-70
2021/12/12 09:35:31;;;;;;;14.50;6.07;;;;;;;21.18;51.08;101247.00;5083499;28;20066;-71
2021/12/12 09:38:07;;;;;;;30.42;14.75;;;;;;;20.92;50.95;101247.50;5077295;28;20451;-71
2021/12/12 09:40:57;;;;;;;24.15;6.25;;;;;;;20.80;51.47;101241.47;5073279;28;20123;-72
2021/12/12 09:43:45;;;;;;;31.85;8.50;;;;;;;20.93;51.51;101245.69;5078433;28;20044;-69
2021/12/12 09:46:39;;;;;;;21.55;5.65;;;;;;;21.11;51.54;101247.13;5084579;28;20043;-70
2021/12/12 09:52:55;;;;;;;25.85;9.02;;;;;;;20.96;51.34;101245.63;5079199;28;20071;-71
2021/12/12 09:55:29;;;;;;;30.58;10.40;;;;;;;20.77;51.81;101247.75;5071091;28;20500;-70
2021/12/12 09:58:00;;;;;;;20.05;5.30;;;;;;;20.77;52.45;101242.41;5087910;28;20140;-70
2021/12/12 10:00:33;;;;;;;20.92;6.30;;;;;;;20.87;52.33;101243.13;5072493;28;20040;-69
2021/12/12 10:03:11;;;;;;;13.90;4.65;;;;;;;21.01;51.80;101230.28;5084459;28;20617;-69
2021/12/12 10:05:51;;;;;;;26.08;9.50;;;;;;;21.28;51.72;101239.63;5072306;28;20048;-70
2021/12/12 10:08:29;;;;;;;33.55;8.07;;;;;;;21.56;51.62;101234.56;5074805;28;20041;-69
2021/12/12 10:11:04;;;;;;;12.35;2.80;;;;;;;21.72;51.09;101211.81;5071968;28;20040;-71
2021/12/12 10:13:39;;;;;;;14.93;3.15;;;;;;;21.82;50.04;101218.72;5088030;28;20129;-70
2021/12/12 10:16:15;;;;;;;17.88;3.38;;;;;;;21.83;50.04;101224.06;5101177;28;20042;-72
2021/12/12 10:18:52;;;;;;;21.98;2.95;;;;;;;21.75;49.87;101219.78;5089219;28;20044;-71
2021/12/12 10:21:26;;;;;;;18.02;4.15;;;;;;;21.41;50.54;101223.22;5089308;28;20040;-70
2021/12/12 10:24:08;;;;;;;19.73;3.63;;;;;;;21.15;51.52;101213.91;5101655;28;20059;-70
2021/12/12 10:26:42;;;;;;;25.45;6.88;;;;;;;20.92;51.81;101222.44;5075863;28;20041;-69
2021/12/12 10:29:16;;;;;;;26.52;6.32;;;;;;;20.84;52.38;101221.69;5086708;28;20040;-69
2021/12/12 10:31:48;;;;;;;18.48;6.28;;;;;;;20.97;52.52;101221.44;5085165;28;20136;-70
2021/12/12 10:34:21;;;;;;;24.70;13.25;;;;;;;20.95;52.21;101214.31;5090193;28;20056;-71
2021/12/12 10:36:57;;;;;;;32.23;13.27;;;;;;;20.93;52.75;101226.91;5095272;28;20040;-70
2021/12/12 10:39:32;;;;;;;18.10;4.22;;;;;;;21.19;52.36;101213.88;5075822;28;20070;-70
2021/12/12 10:42:05;;;;;;;21.00;3.83;;;;;;;21.23;51.82;101212.88;5088451;28;20040;-70
2021/12/12 10:44:38;;;;;;;17.25;3.70;;;;;;;21.04;52.14;101208.78;5087969;28;20076;-70
2021/12/12 10:47:13;;;;;;;29.48;4.88;;;;;;;20.96;52.74;101210.72;5087117;28;20060;-70
2021/12/12 10:50:04;;;;;;;20.45;2.55;;;;;;;20.87;53.34;101211.78;5077909;28;20066;-70
2021/12/12 10:52:38;;;;;;;24.50;5.75;;;;;;;20.80;53.30;101204.78;5072426;28;20048;-70
2021/12/12 10:55:07;;;;;;;;;;;;;;;20.85;53.58;101199.31;5087808;28;20058;-70
2021/12/12 10:57:39;;;;;;;34.90;15.50;;;;;;;20.93;53.16;101209.00;5082508;28;19959;-72
2021/12/12 11:00:14;;;;;;;26.00;12.77;;;;;;;20.90;53.00;101206.34;5092334;28;20119;-70
2021/12/12 11:02:48;;;;;;;26.17;9.60;;;;;;;20.72;53.36;101208.50;5080020;28;20541;-70
2021/12/12 11:05:22;;;;;;;26.55;4.82;;;;;;;20.69;53.77;101207.66;5085527;28;20120;-70
2021/12/12 11:07:54;;;;;;;22.27;3.28;;;;;;;20.57;53.58;101196.25;5093485;28;20082;-70
2021/12/12 11:10:25;;;;;;;19.15;2.60;;;;;;;20.39;53.52;101197.50;5099286;28;20040;-70
2021/12/12 11:12:58;;;;;;;15.98;2.17;;;;;;;20.38;54.14;101197.50;5071937;28;20044;-71
2021/12/12 11:15:32;;;;;;;23.08;3.38;;;;;;;20.56;54.14;101195.38;5089987;28;20044;-69
2021/12/12 11:18:03;;;;;;;14.45;2.45;;;;;;;20.60;53.61;101197.09;5072639;28;20423;-69
2021/12/12 11:20:35;;;;;;;17.48;1.88;;;;;;;20.65;53.83;101194.31;5076578;28;20119;-69
2021/12/12 11:23:07;;;;;;;26.83;3.00;;;;;;;20.82;54.01;101186.81;5084027;28;20051;-71
2021/12/12 11:25:40;;;;;;;19.45;2.58;;;;;;;20.99;53.74;101187.41;5072116;28;20579;-70
2021/12/12 11:28:14;;;;;;;25.08;3.67;;;;;;;21.13;52.96;101194.28;5090199;28;20041;-69
2021/12/12 11:30:48;;;;;;;26.52;4.85;;;;;;;21.25;52.83;101192.25;5087787;28;20047;-72
2021/12/12 11:33:19;;;;;;;35.28;8.77;;;;;;;21.06;52.27;101194.41;5072717;28;20071;-70
2021/12/12 11:35:53;;;;;;;31.75;7.88;;;;;;;20.92;51.96;101193.81;5084715;28;20124;-70
2021/12/12 11:38:31;;;;;;;18.88;3.70;;;;;;;20.82;51.90;101202.03;5087372;28;20037;-69
2021/12/12 11:41:06;;;;;;;29.92;4.00;;;;;;;20.71;52.21;101199.56;5088961;28;20094;-70
2021/12/12 11:43:41;;;;;;;29.60;5.20;;;;;;;20.64;52.80;101196.13;5090661;28;20043;-69
2021/12/12 11:46:13;;;;;;;32.58;8.23;;;;;;;20.59;52.76;101189.09;5089120;28;20144;-69
2021/12/12 11:48:50;;;;;;;33.55;12.77;;;;;;;20.51;53.36;101197.28;5088367;28;20051;-69
2021/12/12 11:51:26;;;;;;;25.73;5.80;;;;;;;20.45;53.96;101197.38;5090373;28;20048;-69
2021/12/12 11:53:59;;;;;;;35.70;11.68;;;;;;;20.48;54.38;101194.63;5090272;28;20039;-69
2021/12/12 11:56:31;;;;;;;28.30;9.77;;;;;;;20.47;54.88;101192.00;5090048;28;20040;-69
2021/12/12 11:59:09;;;;;;;38.05;14.55;;;;;;;20.45;55.06;101183.09;5101429;28;20484;-69